createdAt,value
2022-09-28T04:03:02.653Z,4.78
2022-09-28T04:07:05.219Z,6.88
2022-09-28T04:11:08.874Z,6.68
2022-09-28T04:15:11.710Z,5.50
2022-09-28T04:19:15.894Z,4.80
2022-09-28T04:23:34.559Z,4.68
2022-09-28T04:27:54.554Z,4.53
2022-09-28T04:31:57.394Z,6.15
2022-09-28T04:36:12.547Z,5.03
2022-09-28T04:40:15.228Z,5.95
2022-09-28T04:44:18.720Z,7.13
2022-09-28T04:48:23.556Z,7.60
2022-09-28T04:52:43.757Z,7.47
2022-09-28T04:56:46.278Z,8.07
2022-09-28T05:00:49.313Z,5.55
2022-09-28T05:05:06.835Z,6.68
2022-09-28T05:09:38.449Z,5.85
2022-09-28T05:13:43.351Z,6.18
2022-09-28T05:17:45.906Z,5.80
2022-09-28T05:22:11.293Z,5.00
2022-09-28T05:26:18.806Z,6.30
2022-09-28T05:30:22.029Z,5.80
2022-09-28T05:34:42.601Z,6.93
2022-09-28T05:38:49.250Z,6.72
2022-09-28T05:42:53.087Z,3.75
2022-09-28T05:46:55.593Z,5.38
2022-09-28T05:50:59.626Z,6.90
2022-09-28T05:59:07.214Z,4.13
2022-09-28T06:03:13.158Z,3.47
2022-09-28T06:07:15.761Z,5.80
2022-09-28T06:11:19.007Z,7.15
2022-09-28T06:15:24.974Z,3.42
2022-09-28T06:19:27.551Z,5.13
2022-09-28T06:23:49.504Z,5.90
2022-09-28T06:27:57.713Z,4.18
2022-09-28T06:32:02.215Z,4.32
2022-09-28T06:36:04.981Z,5.63
2022-09-28T06:40:08.411Z,3.60
2022-09-28T06:48:34.166Z,4.63
2022-09-28T06:52:37.286Z,4.47
2022-09-28T06:56:47.148Z,3.60
2022-09-28T07:00:52.069Z,3.17
2022-09-28T07:04:56.064Z,3.83
2022-09-28T07:09:31.723Z,3.42
2022-09-28T07:13:55.901Z,6.03
2022-09-28T07:18:03.246Z,2.97
2022-09-28T07:22:08.019Z,6.15
2022-09-28T07:26:10.747Z,3.22
2022-09-28T07:30:20.122Z,3.10
2022-09-28T07:34:45.548Z,5.55
2022-09-28T07:38:55.198Z,2.95
2022-09-28T07:43:04.438Z,6.07
2022-09-28T07:47:06.983Z,4.97
2022-09-28T07:51:43.471Z,5.15
2022-09-28T07:55:57.520Z,5.40
2022-09-28T08:00:11.255Z,4.13
2022-09-28T08:04:16.830Z,4.13
2022-09-28T08:08:21.160Z,4.28
2022-09-28T08:12:25.464Z,5.85
2022-09-28T08:21:06.063Z,4.97
2022-09-28T08:25:09.387Z,5.80
2022-09-28T08:29:15.211Z,6.05
2022-09-28T08:33:41.988Z,5.07
2022-09-28T08:38:03.387Z,5.07
2022-09-28T08:42:45.695Z,4.10
2022-09-28T08:47:46.263Z,6.53
2022-09-28T08:52:17.835Z,6.50
2022-09-28T08:56:40.127Z,7.90
2022-09-28T09:00:47.297Z,3.72
2022-09-28T09:04:52.595Z,7.20
2022-09-28T09:09:11.589Z,6.03
2022-09-28T09:13:41.598Z,6.78
2022-09-28T09:17:58.840Z,8.98
2022-09-28T09:22:17.457Z,4.70
2022-09-28T09:26:25.511Z,6.43
2022-09-28T09:30:32.084Z,5.60
2022-09-28T09:34:56.138Z,6.30
2022-09-28T09:39:41.839Z,3.92
2022-09-28T09:44:29.486Z,4.25
2022-09-28T09:48:58.409Z,6.05
2022-09-28T09:53:05.992Z,4.88
2022-09-28T09:57:15.882Z,4.47
2022-09-28T10:01:38.864Z,4.63
2022-09-28T10:05:58.983Z,3.92
2022-09-28T10:10:03.344Z,3.28
2022-09-28T10:14:26.715Z,2.88
2022-09-28T10:18:37.474Z,5.68
2022-09-28T10:23:02.060Z,7.75
2022-09-28T10:27:08.454Z,3.40
2022-09-28T10:31:39.278Z,3.33
2022-09-28T10:35:47.789Z,3.80
2022-09-28T10:39:53.180Z,5.63
2022-09-28T10:44:06.124Z,3.13
2022-09-28T10:48:50.265Z,3.97
2022-09-28T10:52:53.263Z,3.92
2022-09-28T10:57:29.183Z,5.57
2022-09-28T11:05:43.801Z,5.18
2022-09-28T11:09:49.756Z,4.72
2022-09-28T11:13:54.591Z,4.38
2022-09-28T11:18:21.171Z,4.72
2022-09-28T11:22:30.020Z,5.03
2022-09-28T11:26:41.700Z,4.03
2022-09-28T11:30:52.178Z,4.07
2022-09-28T11:35:20.656Z,3.13
2022-09-28T11:39:33.802Z,2.53
2022-09-28T11:43:52.249Z,3.72
2022-09-28T11:48:00.518Z,3.75
2022-09-28T11:52:11.953Z,3.47
2022-09-28T11:56:26.958Z,3.85
2022-09-28T12:00:34.967Z,7.25
2022-09-28T12:04:43.328Z,4.22
2022-09-28T12:08:54.250Z,4.22
2022-09-28T12:13:28.461Z,1.23
2022-09-28T12:17:37.385Z,1.63
2022-09-28T12:21:45.262Z,3.53
2022-09-28T12:25:52.851Z,1.52
2022-09-28T12:30:04.067Z,1.42
2022-09-28T12:34:06.838Z,1.65
2022-09-28T12:38:27.802Z,2.78
2022-09-28T12:42:47.169Z,1.60
2022-09-28T12:47:32.059Z,1.50
2022-09-28T12:51:46.618Z,3.38
2022-09-28T12:55:58.918Z,1.35
2022-09-28T13:00:06.604Z,3.95
2022-09-28T13:04:47.233Z,1.40
2022-09-28T13:09:03.303Z,2.42
2022-09-28T13:13:18.486Z,3.63
2022-09-28T13:17:32.331Z,5.60
2022-09-28T13:21:42.734Z,3.35
2022-09-28T13:25:51.798Z,2.35
2022-09-28T13:29:55.793Z,2.97
2022-09-28T13:34:02.908Z,2.78
2022-09-28T13:38:50.197Z,2.30
2022-09-28T13:43:06.941Z,3.25
2022-09-28T13:47:25.564Z,3.25
2022-09-28T13:51:43.396Z,3.58
2022-09-28T13:55:58.414Z,3.95
2022-09-28T14:00:10.607Z,3.92
2022-09-28T14:04:19.714Z,3.42
2022-09-28T14:08:34.539Z,7.60
2022-09-28T14:12:49.556Z,5.07
2022-09-28T14:17:00.075Z,5.18
2022-09-28T14:21:28.250Z,2.53
2022-09-28T14:25:32.898Z,3.58
2022-09-28T14:29:38.875Z,1.92
2022-09-28T14:33:42.893Z,1.50
2022-09-28T14:38:07.660Z,2.00
2022-09-28T14:42:15.588Z,2.42
2022-09-28T14:46:32.308Z,2.97
2022-09-28T14:50:34.929Z,1.70
2022-09-28T14:54:46.300Z,2.60
2022-09-28T14:58:54.583Z,2.00
2022-09-28T15:03:01.956Z,1.77
2022-09-28T15:07:04.417Z,1.38
2022-09-28T15:11:11.775Z,1.30
2022-09-28T15:15:26.353Z,1.40
2022-09-28T15:19:41.413Z,2.00
2022-09-28T15:23:46.831Z,1.63
2022-09-28T15:27:54.094Z,1.70
2022-09-28T15:31:56.605Z,2.50
2022-09-28T15:36:04.687Z,1.40
2022-09-28T15:40:14.403Z,1.58
2022-09-28T15:44:32.863Z,1.52
2022-09-28T15:48:46.387Z,4.88
2022-09-28T15:52:56.821Z,2.08
2022-09-28T15:57:01.887Z,1.60
2022-09-28T16:01:27.623Z,2.30
2022-09-28T16:05:35.752Z,1.98
2022-09-28T16:09:54.681Z,3.08
2022-09-28T16:14:04.379Z,5.00
2022-09-28T16:18:17.924Z,2.95
2022-09-28T16:22:26.722Z,3.97
2022-09-28T16:26:35.355Z,3.65
2022-09-28T16:30:42.409Z,2.58
2022-09-28T16:34:44.931Z,3.05
2022-09-28T16:38:48.207Z,3.70
2022-09-28T16:42:54.810Z,3.60
2022-09-28T16:47:00.158Z,2.97
2022-09-28T16:51:02.653Z,3.08
2022-09-28T16:55:39.648Z,3.53
2022-09-28T16:59:44.561Z,5.63
2022-09-28T17:03:48.777Z,4.80
2022-09-28T17:08:00.399Z,2.35
2022-09-28T17:12:03.170Z,2.88
2022-09-28T17:16:11.215Z,2.63
2022-09-28T17:20:22.344Z,3.33
2022-09-28T17:24:24.825Z,3.03
2022-09-28T17:28:31.019Z,5.53
2022-09-28T17:32:35.132Z,2.80
2022-09-28T17:36:37.754Z,3.97
2022-09-28T17:40:41.154Z,4.33
2022-09-28T17:48:47.459Z,2.85
2022-09-28T17:52:52.257Z,3.20
2022-09-28T17:56:54.712Z,2.78
2022-09-28T18:00:57.198Z,2.40
2022-09-28T18:05:00.986Z,3.22
2022-09-28T18:09:04.770Z,3.45
2022-09-28T18:13:07.768Z,4.65
2022-09-28T18:17:10.390Z,4.72
2022-09-28T18:21:14.902Z,6.20
2022-09-28T18:25:18.075Z,5.15
2022-09-28T18:29:20.735Z,4.78
2022-09-28T18:33:23.357Z,6.10
2022-09-28T18:37:27.274Z,7.07
2022-09-28T18:41:30.009Z,10.25
2022-09-28T18:45:33.041Z,7.03
2022-09-28T18:49:35.602Z,5.72
2022-09-28T18:53:39.964Z,6.55
2022-09-28T18:57:44.054Z,6.03
2022-09-28T19:01:46.889Z,7.07
2022-09-28T19:05:49.589Z,7.72
2022-09-28T19:09:53.742Z,4.67
2022-09-28T19:13:57.206Z,3.45
2022-09-28T19:22:02.513Z,3.67
2022-09-28T19:26:08.707Z,4.13
2022-09-28T19:30:12.287Z,5.15
2022-09-28T19:38:17.335Z,5.55
2022-09-28T19:42:21.258Z,10.37
2022-09-28T19:46:23.891Z,5.20
2022-09-28T19:50:26.584Z,5.73
2022-09-28T19:54:35.696Z,5.53
2022-09-28T19:58:40.597Z,7.35
2022-09-28T20:02:43.279Z,6.38
2022-09-28T20:06:45.913Z,9.40
2022-09-28T20:10:53.387Z,8.73
2022-09-28T20:14:57.734Z,9.07
2022-09-28T20:19:03.346Z,6.03
2022-09-28T20:23:06.006Z,5.30
2022-09-28T20:27:08.624Z,5.67
2022-09-28T20:31:17.522Z,7.03
2022-09-28T20:35:32.360Z,6.03
2022-09-28T20:39:35.771Z,4.97
2022-09-28T20:43:39.754Z,11.37
2022-09-28T20:47:43.680Z,7.18
2022-09-28T20:51:46.327Z,5.55
2022-09-28T20:55:48.892Z,9.93
2022-09-28T20:59:54.739Z,11.93
